Time;durP1;ratioP1;P1;durP2;ratioP2;P2;SDS_P1;SDS_P2;PMS_P1;PMS_P2;Temp;Humidity;BMP_temperature;BMP_pressure;BME280_temperature;BME280_humidity;BME280_pressure;Samples;Min_cycle;Max_cycle;Signal;HPM_P1;HPM_P2
2024/04/09 00:01:30;;;;;;;2.40;2.20;;;;;;;19.62;47.41;102034.17;110410;1259;22113;-55
2024/04/09 00:03:57;;;;;;;2.90;2.10;;;;;;;19.70;47.30;102025.21;110574;1265;22859;-56
2024/04/09 00:06:25;;;;;;;2.50;2.10;;;;;;;19.78;46.99;102021.73;110678;1256;23133;-55
2024/04/09 00:08:55;;;;;;;2.40;2.20;;;;;;;19.81;46.76;102021.43;110579;1256;22495;-55
2024/04/09 00:11:22;;;;;;;2.20;2.00;;;;;;;19.82;46.54;102025.27;110536;1264;22418;-56
2024/04/09 00:13:51;;;;;;;2.70;2.40;;;;;;;19.81;46.64;102021.78;110620;1256;22100;-56
2024/04/09 00:16:22;;;;;;;2.90;2.30;;;;;;;19.80;46.60;102021.83;110439;1256;22438;-56
2024/04/09 00:18:55;;;;;;;3.20;2.50;;;;;;;19.76;46.63;102024.45;110598;1269;23215;-55
2024/04/09 00:21:22;;;;;;;2.40;2.10;;;;;;;19.72;46.49;102024.61;110615;1256;23006;-55
2024/04/09 00:23:49;;;;;;;3.10;2.50;;;;;;;19.67;46.56;102020.92;110627;1256;22485;-56
2024/04/09 00:26:17;;;;;;;2.50;2.20;;;;;;;19.64;46.72;102025.64;110594;1257;23067;-56
2024/04/09 00:28:44;;;;;;;2.80;2.30;;;;;;;19.60;46.85;102026.33;110651;1256;22831;-56
2024/04/09 00:31:10;;;;;;;3.80;2.00;;;;;;;19.58;46.79;102022.73;110601;1255;22138;-55
2024/04/09 00:33:38;;;;;;;2.20;2.00;;;;;;;19.55;46.83;102023.73;110642;1261;22280;-55
2024/04/09 00:36:05;;;;;;;2.20;1.90;;;;;;;19.52;46.99;102024.88;110363;1269;22292;-55
2024/04/09 00:38:33;;;;;;;8.20;2.50;;;;;;;19.49;47.10;102024.96;110564;1263;22600;-56
2024/04/09 00:40:59;;;;;;;3.00;2.60;;;;;;;19.49;47.02;102027.79;110404;1260;22174;-55
2024/04/09 00:43:27;;;;;;;3.70;2.90;;;;;;;19.47;47.12;102023.64;110567;1266;22425;-55
2024/04/09 00:45:55;;;;;;;3.50;2.60;;;;;;;19.45;47.16;102020.54;110592;1256;22417;-56
2024/04/09 00:48:22;;;;;;;4.50;2.90;;;;;;;19.32;47.54;102019.27;110533;1257;22393;-55
2024/04/09 00:50:50;;;;;;;2.50;2.20;;;;;;;19.25;47.79;102019.52;110566;1257;22340;-56
2024/04/09 00:53:17;;;;;;;4.00;2.40;;;;;;;19.21;48.34;102024.08;110658;1257;22135;-55
2024/04/09 00:55:44;;;;;;;2.70;2.50;;;;;;;19.15;48.80;102021.52;110625;1253;22958;-56
2024/04/09 00:58:13;;;;;;;2.30;2.10;;;;;;;19.09;49.06;102018.56;110623;1257;22354;-55
2024/04/09 01:00:40;;;;;;;2.90;2.40;;;;;;;19.04;49.62;102016.10;110280;1269;22385;-55
2024/04/09 01:03:11;;;;;;;3.60;2.10;;;;;;;19.03;49.97;102018.05;110622;1266;22515;-56
2024/04/09 01:05:39;;;;;;;4.40;2.50;;;;;;;19.04;50.37;102017.84;110600;1255;22120;-56
2024/04/09 01:08:06;;;;;;;2.50;2.30;;;;;;;19.05;50.70;102017.83;110318;1260;22347;-55
2024/04/09 01:10:32;;;;;;;2.50;2.30;;;;;;;19.08;50.95;102019.67;110597;1256;22269;-56
2024/04/09 01:13:00;;;;;;;2.10;1.90;;;;;;;19.09;50.98;102022.05;110554;1265;22472;-56
2024/04/09 01:15:27;;;;;;;2.10;1.90;;;;;;;19.10;49.55;102016.40;110645;1257;22141;-56
2024/04/09 01:17:55;;;;;;;2.40;2.20;;;;;;;19.11;48.55;102019.00;110539;1256;22287;-56
2024/04/09 01:20:23;;;;;;;2.80;2.30;;;;;;;19.13;48.55;102018.24;110611;1257;22149;-56
2024/04/09 01:22:50;;;;;;;4.00;2.70;;;;;;;19.14;49.00;102020.83;110614;1263;22281;-56
2024/04/09 01:25:17;;;;;;;3.30;2.70;;;;;;;19.17;49.94;102023.70;110604;1256;22416;-56
2024/04/09 01:27:43;;;;;;;3.40;3.10;;;;;;;19.17;50.92;102019.66;110585;1251;22404;-56
2024/04/09 01:30:12;;;;;;;4.10;3.20;;;;;;;19.11;52.08;102015.34;110299;1274;22398;-56
2024/04/09 01:32:40;;;;;;;3.70;3.40;;;;;;;19.15;52.46;102013.24;110570;1265;22544;-56
2024/04/09 01:35:07;;;;;;;3.10;2.80;;;;;;;19.17;52.60;102013.17;110558;1263;22174;-56
2024/04/09 01:37:38;;;;;;;4.00;3.00;;;;;;;19.23;52.53;102014.14;110568;1262;22403;-56
2024/04/09 01:40:05;;;;;;;3.30;2.60;;;;;;;19.37;51.88;102014.16;110616;1270;22850;-56
2024/04/09 01:42:32;;;;;;;2.40;2.20;;;;;;;19.42;51.58;102015.23;110620;1256;22162;-56
2024/04/09 01:44:59;;;;;;;4.60;2.50;;;;;;;19.45;51.25;102011.05;110646;1256;22442;-56
2024/04/09 01:47:26;;;;;;;3.70;2.40;;;;;;;19.48;51.12;102010.40;110257;1269;22199;-56
2024/04/09 01:49:53;;;;;;;3.20;2.30;;;;;;;19.34;51.58;102007.76;110259;1260;22529;-55
2024/04/09 01:52:22;;;;;;;3.70;2.50;;;;;;;19.30;51.94;102007.91;110656;1254;22185;-55
2024/04/09 01:54:49;;;;;;;3.50;2.70;;;;;;;19.33;52.26;102005.16;110632;1264;22361;-56
2024/04/09 01:57:16;;;;;;;3.30;2.50;;;;;;;19.35;53.02;102004.91;110679;1254;22299;-55
2024/04/09 01:59:43;;;;;;;4.60;2.90;;;;;;;19.39;53.89;102007.23;110579;1256;22418;-56
2024/04/09 02:02:13;;;;;;;4.70;3.00;;;;;;;19.43;54.87;102006.20;110573;1263;22471;-56
2024/04/09 02:04:40;;;;;;;4.20;3.30;;;;;;;19.47;55.75;102003.75;110630;1258;22302;-56
2024/04/09 02:07:07;;;;;;;6.50;3.30;;;;;;;19.53;56.12;102001.41;110580;1256;22289;-56
2024/04/09 02:09:34;;;;;;;5.10;3.50;;;;;;;19.54;56.50;101998.24;110352;1269;22116;-56
2024/04/09 02:12:01;;;;;;;5.10;3.60;;;;;;;19.55;56.70;102001.01;110518;1257;22284;-56
2024/04/09 02:14:28;;;;;;;5.80;3.60;;;;;;;19.58;56.60;102001.08;110343;1260;22299;-56
2024/04/09 02:16:55;;;;;;;4.60;3.50;;;;;;;19.63;56.46;102002.42;110538;1264;22417;-55
2024/04/09 02:19:24;;;;;;;4.10;2.90;;;;;;;19.63;56.37;102004.04;110610;1261;23034;-56
2024/04/09 02:21:51;;;;;;;4.40;3.70;;;;;;;19.65;56.16;102006.23;110626;1256;22404;-56
2024/04/09 02:24:18;;;;;;;3.90;3.30;;;;;;;19.67;56.11;102001.95;110594;1255;22269;-56
2024/04/09 02:26:46;;;;;;;5.90;3.60;;;;;;;19.70;56.27;102007.79;110576;1255;22344;-55
2024/04/09 02:29:12;;;;;;;4.20;3.60;;;;;;;19.76;56.49;102003.86;110565;1267;22189;-56
2024/04/09 02:31:40;;;;;;;6.00;3.60;;;;;;;19.83;56.70;102003.02;110555;1251;22327;-56
2024/04/09 02:34:06;;;;;;;5.20;3.40;;;;;;;19.88;57.07;102003.19;110590;1254;22264;-56
2024/04/09 02:36:33;;;;;;;4.40;3.90;;;;;;;19.91;57.40;102005.70;110570;1256;22143;-56
2024/04/09 02:39:00;;;;;;;4.00;3.30;;;;;;;19.93;57.56;102006.34;110246;1260;22384;-56
2024/04/09 02:41:27;;;;;;;3.50;2.90;;;;;;;20.03;56.64;102005.36;110598;1257;23091;-56
2024/04/09 02:43:54;;;;;;;3.20;2.60;;;;;;;19.97;55.78;102007.91;110203;1257;22392;-56
2024/04/09 02:46:21;;;;;;;3.70;2.60;;;;;;;20.02;54.71;102011.09;110414;1260;22150;-56
2024/04/09 02:48:48;;;;;;;2.90;2.20;;;;;;;19.90;54.53;102011.21;110639;1251;23207;-56
2024/04/09 02:51:15;;;;;;;3.30;2.70;;;;;;;19.88;53.86;102012.86;110630;1264;23232;-55
2024/04/09 02:53:42;;;;;;;3.20;2.40;;;;;;;19.83;53.62;102010.78;110678;1255;22298;-56
2024/04/09 02:56:10;;;;;;;2.50;2.30;;;;;;;19.86;53.20;102012.08;110611;1256;22130;-55
2024/04/09 02:58:36;;;;;;;4.40;2.90;;;;;;;19.91;52.68;102013.81;110552;1258;22174;-56
2024/04/09 03:01:05;;;;;;;2.80;2.10;;;;;;;19.90;52.55;102019.31;110637;1257;22383;-55
2024/04/09 03:03:32;;;;;;;2.40;2.20;;;;;;;19.90;52.32;102020.88;110237;1264;22324;-56
2024/04/09 03:06:09;;;;;;;3.10;2.60;;;;;;;19.85;51.97;102018.60;110559;1263;22166;-55
2024/04/09 03:08:37;;;;;;;3.30;2.40;;;;;;;19.99;51.16;102019.45;110566;1267;22308;-55
2024/04/09 03:11:14;;;;;;;5.00;2.40;;;;;;;20.04;50.81;102023.12;110582;1261;22426;-55
2024/04/09 03:13:44;;;;;;;2.80;2.30;;;;;;;20.01;50.78;102023.08;110579;1256;22410;-55
2024/04/09 03:16:12;;;;;;;2.80;2.50;;;;;;;20.05;50.48;102026.62;110569;1255;22092;-55
2024/04/09 03:18:39;;;;;;;3.00;2.40;;;;;;;20.08;50.23;102028.61;110279;1260;22194;-56
2024/04/09 03:21:06;;;;;;;2.70;2.40;;;;;;;20.07;49.95;102036.06;110543;1256;22398;-55
2024/04/09 03:23:33;;;;;;;3.50;2.40;;;;;;;20.03;49.70;102039.55;110608;1263;23052;-55
2024/04/09 03:26:01;;;;;;;3.10;2.30;;;;;;;19.93;49.85;102045.25;110606;1251;22153;-55
2024/04/09 03:28:27;;;;;;;2.70;2.40;;;;;;;19.95;49.81;102045.14;110586;1255;22144;-56
2024/04/09 03:30:58;;;;;;;3.10;2.40;;;;;;;19.95;49.74;102041.29;110572;1251;22489;-55
2024/04/09 03:33:25;;;;;;;3.00;2.40;;;;;;;19.94;49.48;102043.96;110575;1267;22460;-55
2024/04/09 03:35:52;;;;;;;3.90;2.60;;;;;;;19.76;49.97;102044.35;110571;1251;22835;-56
2024/04/09 03:38:19;;;;;;;5.10;2.60;;;;;;;19.53;50.37;102048.77;110393;1267;22471;-55
2024/04/09 03:40:56;;;;;;;2.60;2.30;;;;;;;19.44;50.37;102050.70;110563;1256;23169;-55
2024/04/09 03:43:23;;;;;;;5.20;3.20;;;;;;;19.39;50.37;102047.17;110585;1268;22830;-55
2024/04/09 03:46:08;;;;;;;2.80;2.30;;;;;;;19.39;50.25;102045.43;110624;1267;22529;-55
2024/04/09 03:48:35;;;;;;;2.60;2.40;;;;;;;19.29;50.21;102050.17;110594;1256;22125;-55
2024/04/09 03:51:05;;;;;;;2.10;1.90;;;;;;;19.37;49.53;102054.30;110589;1267;22418;-56
2024/04/09 03:53:33;;;;;;;2.40;2.10;;;;;;;19.43;48.58;102056.15;110568;1254;22775;-56
2024/04/09 03:56:02;;;;;;;2.00;1.80;;;;;;;19.44;46.77;102057.73;110583;1258;22288;-55
2024/04/09 03:58:39;;;;;;;4.20;2.00;;;;;;;19.39;45.72;102060.90;110519;1251;22227;-56
2024/04/09 04:01:06;;;;;;;1.50;1.40;;;;;;;19.43;45.47;102063.20;110563;1264;22422;-56
2024/04/09 04:03:41;;;;;;;1.90;1.40;;;;;;;19.41;44.83;102064.52;110570;1261;22405;-55
2024/04/09 04:06:09;;;;;;;3.40;1.50;;;;;;;19.29;44.61;102068.98;110617;1266;22117;-56
2024/04/09 04:08:38;;;;;;;2.90;1.50;;;;;;;19.32;44.14;102072.58;110656;1255;22313;-56
2024/04/09 04:11:06;;;;;;;2.50;2.20;;;;;;;19.28;44.25;102071.31;110316;1255;22464;-56
2024/04/09 04:13:33;;;;;;;3.40;2.60;;;;;;;19.13;44.64;102072.76;110574;1260;22879;-57
2024/04/09 04:16:05;;;;;;;3.80;2.60;;;;;;;19.10;44.79;102073.05;110616;1253;22383;-56
2024/04/09 04:18:45;;;;;;;3.90;3.50;;;;;;;19.16;45.58;102078.98;109796;1251;1003157;-55
2024/04/09 04:21:13;;;;;;;4.70;3.50;;;;;;;19.11;46.57;102082.67;110561;1251;22137;-56
2024/04/09 04:23:40;;;;;;;5.00;3.80;;;;;;;19.09;47.36;102084.87;110582;1257;22292;-56
2024/04/09 04:26:09;;;;;;;4.90;3.70;;;;;;;19.24;47.82;102085.02;110544;1263;22266;-55
2024/04/09 04:28:38;;;;;;;10.30;4.30;;;;;;;19.30;48.16;102085.15;110488;1256;23251;-55
2024/04/09 04:31:06;;;;;;;5.70;4.20;;;;;;;19.32;48.47;102090.00;110642;1251;22427;-55
2024/04/09 04:33:33;;;;;;;6.20;4.40;;;;;;;19.32;48.96;102090.88;110584;1256;22151;-55
2024/04/09 04:36:00;;;;;;;5.30;3.90;;;;;;;19.31;49.28;102092.69;110215;1268;23115;-56
2024/04/09 04:38:28;;;;;;;7.00;4.40;;;;;;;19.33;49.24;102091.90;110551;1264;22346;-56
2024/04/09 04:40:55;;;;;;;5.80;4.00;;;;;;;19.40;49.36;102090.24;110588;1263;23355;-56
2024/04/09 04:43:23;;;;;;;5.90;4.00;;;;;;;19.46;49.23;102093.00;110554;1263;22541;-56
2024/04/09 04:45:51;;;;;;;5.00;4.00;;;;;;;19.54;48.97;102091.34;110579;1253;22247;-56
2024/04/09 04:48:20;;;;;;;4.60;3.60;;;;;;;19.58;48.82;102090.65;110596;1254;22107;-56
2024/04/09 04:50:47;;;;;;;5.20;3.20;;;;;;;19.47;49.00;102096.52;110590;1263;22248;-56
2024/04/09 04:53:14;;;;;;;7.90;4.80;;;;;;;19.50;48.88;102094.98;110519;1256;22427;-55
2024/04/09 04:55:41;;;;;;;3.80;3.30;;;;;;;19.65;48.39;102090.18;110664;1255;22277;-56
2024/04/09 04:58:08;;;;;;;3.60;3.30;;;;;;;19.87;47.66;102093.38;110576;1259;22111;-56
2024/04/09 05:00:35;;;;;;;5.70;4.20;;;;;;;19.96;47.76;102087.92;110341;1255;23200;-56
2024/04/09 05:03:04;;;;;;;5.80;3.70;;;;;;;20.04;47.83;102089.54;110388;1270;22107;-56
2024/04/09 05:05:32;;;;;;;5.60;3.40;;;;;;;20.10;48.05;102091.05;110588;1266;22290;-56
2024/04/09 05:07:59;;;;;;;6.00;3.90;;;;;;;20.13;48.16;102092.84;110547;1268;22819;-56
2024/04/09 05:10:26;;;;;;;5.20;4.10;;;;;;;20.18;48.35;102094.08;110538;1264;22301;-56
2024/04/09 05:12:53;;;;;;;7.00;4.10;;;;;;;20.23;48.48;102094.59;110621;1266;22311;-56
2024/04/09 05:15:20;;;;;;;5.90;4.10;;;;;;;20.28;48.49;102093.69;110630;1251;23194;-56
2024/04/09 05:17:47;;;;;;;5.60;4.70;;;;;;;20.43;48.18;102091.49;110566;1251;22884;-56
2024/04/09 05:20:16;;;;;;;7.00;5.00;;;;;;;20.54;48.05;102090.13;110592;1251;22978;-55
2024/04/09 05:22:44;;;;;;;8.70;5.30;;;;;;;20.59;48.07;102086.21;110579;1262;22399;-56
2024/04/09 05:25:12;;;;;;;7.50;4.00;;;;;;;20.67;48.03;102088.56;110553;1251;22710;-56
2024/04/09 05:27:39;;;;;;;8.50;4.80;;;;;;;20.71;47.89;102088.36;110559;1256;22540;-56
2024/04/09 05:30:06;;;;;;;6.90;3.70;;;;;;;20.63;48.22;102089.05;110568;1259;22809;-56
2024/04/09 05:32:35;;;;;;;6.00;3.70;;;;;;;20.57;48.59;102092.48;110325;1257;23167;-56
2024/04/09 05:35:03;;;;;;;4.80;4.00;;;;;;;20.58;48.76;102093.31;110543;1274;22355;-56
2024/04/09 05:37:30;;;;;;;6.80;4.30;;;;;;;20.59;48.94;102091.85;110543;1274;22396;-56
2024/04/09 05:39:58;;;;;;;7.60;3.90;;;;;;;20.56;49.23;102091.98;110110;1275;22113;-56
2024/04/09 05:42:25;;;;;;;5.10;4.20;;;;;;;20.68;49.20;102094.30;110489;1274;22289;-56
2024/04/09 05:44:51;;;;;;;9.50;4.20;;;;;;;20.74;49.17;102093.50;110574;1267;23017;-56
2024/04/09 05:47:18;;;;;;;5.20;3.80;;;;;;;20.83;48.98;102094.70;110530;1269;22498;-56
2024/04/09 05:49:47;;;;;;;8.10;4.10;;;;;;;20.96;48.54;102095.19;110546;1274;22747;-56
2024/04/09 05:52:14;;;;;;;7.10;3.60;;;;;;;21.17;48.01;102096.78;110557;1266;22506;-56
2024/04/09 05:54:45;;;;;;;4.90;3.60;;;;;;;21.42;47.12;102101.09;110535;1274;22185;-56
2024/04/09 05:57:12;;;;;;;6.10;3.60;;;;;;;21.69;46.46;102099.66;110548;1267;23162;-56
2024/04/09 05:59:39;;;;;;;8.10;3.20;;;;;;;21.99;45.76;102096.85;110372;1271;23206;-56
2024/04/09 06:02:06;;;;;;;3.90;2.90;;;;;;;22.54;44.23;102100.29;110589;1254;22402;-56
2024/04/09 06:04:33;;;;;;;4.30;2.70;;;;;;;23.04;42.24;102101.78;110551;1269;22147;-57
2024/04/09 06:07:01;;;;;;;4.00;2.40;;;;;;;23.46;40.94;102103.11;110280;1271;22172;-56
2024/04/09 06:09:28;;;;;;;3.20;2.50;;;;;;;23.78;39.40;102098.15;110355;1256;22455;-57
2024/04/09 06:11:55;;;;;;;3.20;2.00;;;;;;;24.05;38.53;102102.81;110556;1274;22475;-57
2024/04/09 06:14:22;;;;;;;3.90;2.20;;;;;;;24.21;38.12;102101.56;110518;1267;22258;-57
2024/04/09 06:16:52;;;;;;;6.20;2.50;;;;;;;24.34;37.76;102103.86;110555;1274;22196;-57
2024/04/09 06:19:21;;;;;;;4.50;2.50;;;;;;;24.44;37.53;102100.61;109010;1268;1003028;-57
2024/04/09 06:21:48;;;;;;;2.60;2.20;;;;;;;24.50;37.27;102101.98;110526;1274;22297;-57
2024/04/09 06:24:15;;;;;;;3.30;2.40;;;;;;;24.78;37.03;102098.54;110536;1267;23374;-57
2024/04/09 06:26:42;;;;;;;4.90;2.60;;;;;;;25.00;36.58;102099.67;110536;1267;22407;-57
2024/04/09 06:29:09;;;;;;;4.20;2.10;;;;;;;25.03;36.04;102103.42;110413;1274;22472;-57
2024/04/09 06:31:37;;;;;;;4.80;2.40;;;;;;;24.90;36.09;102101.88;110515;1267;22158;-56
2024/04/09 06:34:04;;;;;;;4.70;2.40;;;;;;;24.96;35.70;102110.24;110581;1274;22410;-56
2024/04/09 06:36:31;;;;;;;4.20;2.20;;;;;;;25.05;35.53;102112.38;110537;1266;22961;-56
2024/04/09 06:38:58;;;;;;;2.30;1.80;;;;;;;25.20;34.98;102111.61;110545;1274;22472;-57
2024/04/09 06:41:24;;;;;;;2.40;2.00;;;;;;;25.32;34.89;102115.45;110592;1266;22140;-56
2024/04/09 06:43:51;;;;;;;4.90;2.10;;;;;;;25.39;35.54;102116.29;110554;1267;23175;-57
2024/04/09 06:46:18;;;;;;;5.10;2.40;;;;;;;25.54;35.47;102120.34;110563;1268;22107;-57
2024/04/09 06:48:45;;;;;;;4.40;2.30;;;;;;;25.67;35.40;102123.78;110456;1267;22329;-56
2024/04/09 06:51:12;;;;;;;3.30;2.20;;;;;;;25.79;35.24;102125.64;110524;1267;23117;-57
2024/04/09 06:53:39;;;;;;;4.00;2.50;;;;;;;25.99;34.62;102126.86;110540;1274;22137;-57
2024/04/09 06:56:06;;;;;;;4.30;2.50;;;;;;;26.12;34.14;102126.06;110564;1268;23077;-57
2024/04/09 06:58:34;;;;;;;3.10;2.00;;;;;;;26.15;33.99;102130.50;110147;1273;22115;-57
2024/04/09 07:01:01;;;;;;;1.90;1.80;;;;;;;26.15;33.53;102129.90;110351;1272;22372;-57
2024/04/09 07:03:28;;;;;;;2.30;1.50;;;;;;;26.18;32.93;102133.32;110121;1275;22330;-57
2024/04/09 07:05:55;;;;;;;2.20;1.90;;;;;;;26.17;32.77;102130.90;110282;1270;22355;-57
2024/04/09 07:08:22;;;;;;;3.20;1.80;;;;;;;26.10;32.60;102133.31;110548;1267;22175;-57
2024/04/09 07:10:54;;;;;;;2.10;1.80;;;;;;;26.14;32.32;102132.86;110546;1269;22120;-57
2024/04/09 07:13:21;;;;;;;3.50;1.80;;;;;;;26.22;31.84;102131.27;110474;1273;22420;-57
2024/04/09 07:15:50;;;;;;;2.40;1.70;;;;;;;26.27;31.66;102129.48;110539;1274;22849;-57
2024/04/09 07:18:17;;;;;;;4.00;1.90;;;;;;;26.41;31.55;102126.96;110565;1267;22321;-57
2024/04/09 07:20:44;;;;;;;2.50;1.80;;;;;;;26.58;31.30;102130.98;110559;1267;22133;-57
2024/04/09 07:23:11;;;;;;;3.10;2.10;;;;;;;26.62;31.15;102131.77;110552;1267;22395;-57
2024/04/09 07:25:39;;;;;;;2.30;1.90;;;;;;;26.66;30.91;102132.77;110536;1274;22926;-57
2024/04/09 07:28:06;;;;;;;2.30;2.00;;;;;;;26.82;30.39;102135.20;110547;1274;22193;-57
2024/04/09 07:30:35;;;;;;;4.10;1.80;;;;;;;26.95;30.11;102135.77;110463;1269;23161;-57
2024/04/09 07:33:04;;;;;;;2.90;2.00;;;;;;;26.97;29.54;102141.81;109572;1274;1002859;-57
2024/04/09 07:35:31;;;;;;;3.00;2.00;;;;;;;27.03;29.52;102139.09;109449;1272;1002380;-57
2024/04/09 07:37:58;;;;;;;3.00;2.40;;;;;;;27.08;29.24;102133.75;110523;1268;22905;-57
2024/04/09 07:40:25;;;;;;;4.40;2.70;;;;;;;26.99;29.77;102132.29;110533;1274;22279;-57
2024/04/09 07:42:51;;;;;;;3.50;2.40;;;;;;;26.86;30.43;102130.87;110561;1274;23117;-57
2024/04/09 07:45:19;;;;;;;5.40;2.70;;;;;;;26.71;31.08;102131.18;110382;1270;22093;-56
2024/04/09 07:47:49;;;;;;;4.10;2.70;;;;;;;26.57;32.12;102130.84;110592;1267;22187;-56
2024/04/09 07:50:16;;;;;;;5.30;2.90;;;;;;;26.59;32.92;102132.83;110569;1274;22251;-57
2024/04/09 07:52:43;;;;;;;4.10;3.20;;;;;;;26.50;34.31;102133.63;110313;1269;22399;-57
2024/04/09 07:55:11;;;;;;;4.60;3.00;;;;;;;26.33;35.47;102138.55;110569;1274;22471;-57
2024/04/09 07:57:45;;;;;;;3.80;2.50;;;;;;;26.24;36.16;102138.75;110610;1266;22363;-57
2024/04/09 08:00:16;;;;;;;4.80;3.10;;;;;;;26.15;36.57;102134.02;110558;1267;22845;-56
2024/04/09 08:02:46;;;;;;;4.60;2.80;;;;;;;26.08;36.93;102131.48;110570;1267;22246;-57
2024/04/09 08:05:15;;;;;;;4.50;3.20;;;;;;;26.01;37.26;102127.81;110543;1274;22295;-56
2024/04/09 08:07:42;;;;;;;3.50;3.20;;;;;;;25.96;37.27;102130.98;110571;1268;23031;-57
2024/04/09 08:10:12;;;;;;;6.10;3.00;;;;;;;25.89;37.57;102128.63;110608;1267;23076;-57
2024/04/09 08:12:49;;;;;;;5.70;3.20;;;;;;;25.80;37.98;102126.09;110358;1268;22137;-57
2024/04/09 08:15:18;;;;;;;3.60;3.30;;;;;;;25.74;38.47;102125.77;110593;1267;22385;-57
2024/04/09 08:17:48;;;;;;;4.70;3.30;;;;;;;25.71;38.53;102125.65;110561;1274;22298;-56
2024/04/09 08:20:18;;;;;;;9.20;3.50;;;;;;;25.70;38.79;102123.72;110369;1272;22442;-56
2024/04/09 08:22:49;;;;;;;5.00;3.90;;;;;;;25.72;38.83;102119.69;110403;1266;22624;-56
2024/04/09 08:25:16;;;;;;;6.50;3.50;;;;;;;25.67;38.96;102118.24;110579;1267;23132;-56
2024/04/09 08:27:43;;;;;;;4.80;3.70;;;;;;;25.61;39.17;102123.40;110513;1269;22337;-56
2024/04/09 08:30:12;;;;;;;4.30;3.50;;;;;;;25.58;39.35;102124.91;110574;1267;22259;-56
2024/04/09 08:32:41;;;;;;;4.70;3.60;;;;;;;25.56;39.39;102128.02;110559;1266;22392;-56
2024/04/09 08:35:11;;;;;;;3.70;3.40;;;;;;;25.54;39.32;102130.25;110566;1274;23176;-58
2024/04/09 08:37:41;;;;;;;6.20;3.40;;;;;;;25.52;39.32;102128.08;110425;1266;22324;-56
2024/04/09 08:40:10;;;;;;;3.30;3.00;;;;;;;25.48;39.44;102132.94;110456;1266;22434;-56
2024/04/09 08:42:38;;;;;;;5.30;3.30;;;;;;;25.44;39.73;102135.71;110266;1271;22461;-56
2024/04/09 08:45:14;;;;;;;3.40;2.90;;;;;;;25.44;39.59;102132.70;110092;1274;22443;-56
2024/04/09 08:47:43;;;;;;;4.50;3.30;;;;;;;25.46;39.66;102133.98;110572;1274;22121;-56
2024/04/09 08:50:12;;;;;;;5.20;2.90;;;;;;;25.45;39.58;102130.86;110066;1275;22335;-56
2024/04/09 08:52:40;;;;;;;3.70;2.60;;;;;;;25.46;39.27;102130.75;110360;1268;22670;-56
2024/04/09 08:55:08;;;;;;;4.20;3.20;;;;;;;25.59;38.84;102130.47;110554;1274;22381;-57
2024/04/09 08:57:35;;;;;;;4.10;2.30;;;;;;;25.62;38.65;102123.56;110641;1267;22117;-56
2024/04/09 09:00:05;;;;;;;4.70;2.60;;;;;;;25.47;38.96;102116.66;110566;1267;22500;-56
2024/04/09 09:02:37;;;;;;;3.30;2.50;;;;;;;25.42;39.23;102114.86;110566;1274;22812;-56
2024/04/09 09:05:05;;;;;;;3.20;2.30;;;;;;;25.41;38.91;102117.77;110557;1271;22387;-56
2024/04/09 09:07:32;;;;;;;2.80;2.10;;;;;;;25.39;38.68;102119.13;110590;1267;22182;-56
2024/04/09 09:10:00;;;;;;;2.50;1.90;;;;;;;25.41;38.34;102123.83;110604;1266;22254;-56
2024/04/09 09:12:26;;;;;;;3.00;2.20;;;;;;;25.56;38.20;102123.56;110544;1274;22471;-56
2024/04/09 09:14:55;;;;;;;2.90;2.40;;;;;;;25.59;38.00;102120.72;110547;1274;22102;-56
2024/04/09 09:17:22;;;;;;;2.90;1.80;;;;;;;25.61;37.51;102118.11;110605;1267;22309;-56
2024/04/09 09:20:09;;;;;;;2.50;2.00;;;;;;;25.64;37.29;102116.49;110571;1267;22298;-56
2024/04/09 09:22:45;;;;;;;3.70;2.40;;;;;;;25.68;37.31;102113.77;110613;1267;22491;-56
2024/04/09 09:25:22;;;;;;;4.50;2.10;;;;;;;25.75;37.25;102112.59;110319;1271;22304;-56
2024/04/09 09:28:01;;;;;;;2.10;1.70;;;;;;;25.79;37.19;102113.20;110523;1274;22443;-56
2024/04/09 09:30:36;;;;;;;3.40;1.70;;;;;;;25.82;36.34;102107.30;110495;1268;22388;-56
2024/04/09 09:33:04;;;;;;;3.00;2.10;;;;;;;25.81;35.94;102109.66;110573;1271;22495;-56
2024/04/09 09:35:35;;;;;;;2.40;2.10;;;;;;;25.83;36.01;102109.20;110545;1267;22193;-56
2024/04/09 09:38:03;;;;;;;3.50;2.20;;;;;;;25.87;35.96;102109.00;110507;1268;22566;-56
2024/04/09 09:40:30;;;;;;;2.80;2.30;;;;;;;25.86;36.15;102105.48;110572;1274;22406;-56
2024/04/09 09:42:57;;;;;;;1.80;1.70;;;;;;;25.72;36.07;102102.12;110608;1268;22332;-56
2024/04/09 09:45:24;;;;;;;2.60;2.10;;;;;;;25.64;35.91;102100.86;110408;1266;22411;-56
2024/04/09 09:47:53;;;;;;;2.90;1.70;;;;;;;25.56;35.66;102097.07;110491;1267;22106;-56
2024/04/09 09:50:20;;;;;;;3.60;2.00;;;;;;;25.48;35.33;102093.00;110543;1269;22142;-56
2024/04/09 09:52:47;;;;;;;3.70;2.30;;;;;;;25.39;36.00;102094.93;110585;1269;22145;-56
2024/04/09 09:55:14;;;;;;;4.30;2.60;;;;;;;25.32;36.77;102092.39;110573;1274;22387;-56
2024/04/09 09:57:43;;;;;;;3.90;2.30;;;;;;;25.27;37.50;102089.84;110517;1268;22389;-56
2024/04/09 10:00:11;;;;;;;4.40;2.30;;;;;;;25.26;37.47;102083.71;110532;1268;22418;-56
2024/04/09 10:02:42;;;;;;;6.40;2.60;;;;;;;25.26;37.64;102080.01;110493;1268;22309;-56
2024/04/09 10:05:17;;;;;;;2.90;1.70;;;;;;;25.24;37.47;102077.23;110495;1273;23068;-56
2024/04/09 10:07:48;;;;;;;3.70;2.30;;;;;;;25.23;36.27;102081.05;110065;1275;22143;-56
2024/04/09 10:10:29;;;;;;;1.90;1.70;;;;;;;25.19;35.80;102084.00;110541;1274;22268;-56
2024/04/09 10:13:06;;;;;;;2.00;1.80;;;;;;;25.16;35.26;102081.89;110565;1274;22382;-56
2024/04/09 10:15:34;;;;;;;4.00;1.90;;;;;;;25.10;35.14;102082.27;110551;1266;22365;-57
2024/04/09 10:18:04;;;;;;;2.50;1.90;;;;;;;25.06;35.83;102082.61;110632;1266;22348;-56
2024/04/09 10:20:36;;;;;;;2.90;1.90;;;;;;;25.08;35.37;102078.05;110562;1274;22471;-56
2024/04/09 10:23:04;;;;;;;2.70;1.90;;;;;;;25.07;35.57;102077.59;110543;1267;22415;-57
2024/04/09 10:25:36;;;;;;;2.70;2.10;;;;;;;25.04;35.55;102076.02;110363;1271;23176;-56
2024/04/09 10:28:06;;;;;;;3.40;1.70;;;;;;;24.98;35.50;102077.64;110434;1269;22249;-57
2024/04/09 10:30:34;;;;;;;1.70;1.60;;;;;;;24.96;35.96;102074.02;110587;1266;22261;-56
2024/04/09 10:33:02;;;;;;;2.20;1.70;;;;;;;24.96;36.21;102076.14;110618;1267;23072;-56
2024/04/09 10:35:30;;;;;;;3.40;2.20;;;;;;;25.02;36.28;102073.63;110562;1269;22341;-56
2024/04/09 10:37:58;;;;;;;2.40;1.90;;;;;;;25.11;36.19;102071.48;110329;1268;23176;-56
2024/04/09 10:40:25;;;;;;;2.30;1.90;;;;;;;25.15;36.23;102074.12;110613;1267;22457;-56
2024/04/09 10:42:52;;;;;;;2.20;1.70;;;;;;;25.12;36.46;102069.83;110575;1274;22151;-56
2024/04/09 10:45:19;;;;;;;2.20;1.70;;;;;;;25.15;36.58;102070.19;110580;1267;22436;-56
2024/04/09 10:47:46;;;;;;;2.80;1.90;;;;;;;25.19;36.37;102059.80;110597;1267;22606;-56
2024/04/09 10:50:14;;;;;;;1.90;1.70;;;;;;;25.23;36.42;102058.65;110298;1271;23233;-56
2024/04/09 10:52:41;;;;;;;2.50;1.90;;;;;;;25.27;36.22;102058.23;110541;1272;23130;-56
2024/04/09 10:55:12;;;;;;;2.00;1.70;;;;;;;25.33;36.16;102052.50;110576;1267;22210;-56
2024/04/09 10:57:40;;;;;;;1.90;1.70;;;;;;;25.41;36.03;102055.08;110370;1274;235122;-56
2024/04/09 11:00:13;;;;;;;2.50;1.90;;;;;;;25.43;36.05;102051.58;110589;1268;22382;-56
2024/04/09 11:02:41;;;;;;;2.50;2.10;;;;;;;25.45;35.85;102053.02;110589;1274;22097;-56
2024/04/09 11:05:09;;;;;;;1.80;1.60;;;;;;;25.45;35.92;102055.17;110607;1267;22418;-56
2024/04/09 11:07:40;;;;;;;2.50;1.70;;;;;;;25.46;35.84;102052.10;110381;1274;22461;-56
2024/04/09 11:10:08;;;;;;;1.80;1.50;;;;;;;25.53;35.32;102050.17;110585;1266;22394;-56
2024/04/09 11:12:36;;;;;;;3.10;1.60;;;;;;;25.66;35.08;102047.05;110514;1274;22386;-56
2024/04/09 11:15:03;;;;;;;2.80;2.00;;;;;;;25.67;34.67;102046.09;110503;1274;22415;-57
2024/04/09 11:17:32;;;;;;;1.60;1.50;;;;;;;25.69;34.79;102045.63;110592;1267;22181;-56
2024/04/09 11:20:14;;;;;;;2.00;1.90;;;;;;;25.71;34.94;102039.27;110581;1274;22387;-56
2024/04/09 11:22:41;;;;;;;2.40;1.90;;;;;;;25.74;34.69;102037.42;110557;1274;22292;-56